createdAt,value
2022-12-23T00:04:07.329Z,39.42
2022-12-23T00:09:09.780Z,42.27
2022-12-23T00:14:30.747Z,41.95
2022-12-23T00:19:33.146Z,25.40
2022-12-23T00:24:35.550Z,62.90
2022-12-23T00:29:37.972Z,51.33
2022-12-23T00:34:40.374Z,42.83
2022-12-23T00:40:06.325Z,39.30
2022-12-23T00:45:15.957Z,46.33
2022-12-23T00:50:18.517Z,38.10
2022-12-23T00:55:21.044Z,26.90
2022-12-23T01:00:43.709Z,41.07
2022-12-23T01:05:46.157Z,43.88
2022-12-23T01:10:48.591Z,49.43
2022-12-23T01:15:50.972Z,31.67
2022-12-23T01:20:53.436Z,22.33
2022-12-23T01:26:00.255Z,35.83
2022-12-23T01:31:04.413Z,15.20
2022-12-23T01:36:09.854Z,28.90
2022-12-23T01:41:39.913Z,36.42
2022-12-23T01:46:43.101Z,24.33
2022-12-23T01:51:45.512Z,38.07
2022-12-23T01:56:47.995Z,35.58
2022-12-23T02:02:09.085Z,39.87
2022-12-23T02:07:30.633Z,23.27
2022-12-23T02:12:42.800Z,43.42
2022-12-23T02:18:16.389Z,50.07
2022-12-23T02:23:52.767Z,40.67
2022-12-23T02:29:07.213Z,37.00
2022-12-23T02:34:19.746Z,41.33
2022-12-23T02:39:45.753Z,42.22
2022-12-23T02:45:32.652Z,33.50
2022-12-23T02:50:37.030Z,8.73
2022-12-23T02:55:41.156Z,36.17
2022-12-23T03:00:44.900Z,31.15
2022-12-23T03:05:48.813Z,38.78
2022-12-23T03:10:54.195Z,34.53
2022-12-23T03:16:30.036Z,23.77
2022-12-23T03:21:47.651Z,33.27
2022-12-23T03:27:01.256Z,23.67
2022-12-23T03:32:04.636Z,33.40
2022-12-23T03:37:10.343Z,40.77
2022-12-23T03:42:21.917Z,34.92
2022-12-23T03:47:35.491Z,18.03
2022-12-23T03:52:41.705Z,33.22
2022-12-23T03:58:16.403Z,30.88
2022-12-23T04:03:25.477Z,36.93
2022-12-23T04:08:35.047Z,42.33
2022-12-23T04:13:37.622Z,34.40
2022-12-23T04:18:40.031Z,34.22
2022-12-23T04:23:42.443Z,41.30
2022-12-23T04:28:44.898Z,39.13
2022-12-23T04:33:47.396Z,40.95
2022-12-23T04:38:49.815Z,34.47
2022-12-23T04:43:53.233Z,38.83
2022-12-23T04:48:55.939Z,42.25
2022-12-23T04:53:58.450Z,40.23
2022-12-23T04:59:02.429Z,42.88
2022-12-23T05:04:05.096Z,40.23
2022-12-23T05:09:07.823Z,46.47
2022-12-23T05:14:13.692Z,57.38
2022-12-23T05:19:16.297Z,34.83
2022-12-23T05:24:18.786Z,34.95
2022-12-23T05:29:21.235Z,39.50
2022-12-23T05:34:23.814Z,38.50
2022-12-23T05:39:26.282Z,46.70
2022-12-23T05:44:28.754Z,48.03
2022-12-23T05:49:31.154Z,48.15
2022-12-23T05:54:33.594Z,46.10
2022-12-23T05:59:36.108Z,41.03
2022-12-23T06:04:38.565Z,47.22
2022-12-23T06:09:41.347Z,59.20
2022-12-23T06:14:43.815Z,45.35
2022-12-23T06:19:47.508Z,45.27
2022-12-23T06:24:51.057Z,45.08
2022-12-23T06:29:54.454Z,46.50
2022-12-23T06:34:56.874Z,26.33
2022-12-23T06:39:59.354Z,35.40
2022-12-23T06:45:01.796Z,36.97
2022-12-23T06:50:04.993Z,35.08
2022-12-23T06:55:07.783Z,27.85
2022-12-23T07:00:10.965Z,51.43
2022-12-23T07:05:13.406Z,62.05
2022-12-23T07:10:15.907Z,48.90
2022-12-23T07:15:18.438Z,45.28
2022-12-23T07:20:20.839Z,63.15
2022-12-23T07:25:23.783Z,67.80
2022-12-23T07:30:26.373Z,66.15
2022-12-23T07:35:29.020Z,65.40
2022-12-23T07:40:31.483Z,68.75
2022-12-23T07:45:34.133Z,82.32
2022-12-23T07:50:36.688Z,81.67
2022-12-23T07:55:39.143Z,64.35
2022-12-23T08:00:41.663Z,57.97
2022-12-23T08:05:44.167Z,51.35
2022-12-23T08:10:48.494Z,64.00
2022-12-23T08:15:55.964Z,41.47
2022-12-23T08:21:13.206Z,63.65
2022-12-23T08:26:18.808Z,59.67
2022-12-23T08:31:29.134Z,61.65
2022-12-23T08:36:33.704Z,60.03
2022-12-23T08:41:42.227Z,50.67
2022-12-23T08:46:44.905Z,50.35
2022-12-23T08:51:47.784Z,51.90
2022-12-23T08:56:50.718Z,52.03
2022-12-23T09:01:53.282Z,75.53
2022-12-23T09:06:55.951Z,44.53
2022-12-23T09:11:58.367Z,43.92
2022-12-23T09:17:00.807Z,50.93
2022-12-23T09:22:03.229Z,48.50
2022-12-23T09:27:05.742Z,53.65
2022-12-23T09:32:08.141Z,55.43
2022-12-23T09:37:12.964Z,57.47
2022-12-23T09:42:24.431Z,55.73
2022-12-23T09:47:28.592Z,45.00
2022-12-23T09:53:00.341Z,53.50
2022-12-23T09:58:08.664Z,50.17
2022-12-23T10:03:28.552Z,41.97
2022-12-23T10:08:36.856Z,42.23
2022-12-23T10:13:45.916Z,40.25
2022-12-23T10:19:07.278Z,39.78
2022-12-23T10:24:37.479Z,32.53
2022-12-23T10:29:40.104Z,25.98
2022-12-23T10:35:03.935Z,30.37
2022-12-23T10:40:12.226Z,30.83
2022-12-23T10:45:23.894Z,37.40
2022-12-23T10:50:46.194Z,27.90
2022-12-23T10:55:49.800Z,38.78
2022-12-23T11:00:55.779Z,36.00
2022-12-23T11:05:59.043Z,40.08
2022-12-23T11:11:01.657Z,40.05
2022-12-23T11:16:28.036Z,29.17
2022-12-23T11:21:32.081Z,30.40
2022-12-23T11:26:34.720Z,29.45
2022-12-23T11:31:37.752Z,29.90
2022-12-23T11:36:40.292Z,30.20
2022-12-23T11:41:49.195Z,32.83
2022-12-23T11:46:52.004Z,38.53
2022-12-23T11:52:11.548Z,38.58
2022-12-23T11:57:21.560Z,44.70
2022-12-23T12:02:30.887Z,31.60
2022-12-23T12:07:34.204Z,26.40
2022-12-23T12:12:36.930Z,25.20
2022-12-23T12:17:44.339Z,27.90
2022-12-23T12:22:54.388Z,22.97
2022-12-23T12:28:15.555Z,31.73
2022-12-23T12:33:40.984Z,20.30
2022-12-23T12:38:47.738Z,23.23
2022-12-23T12:43:57.139Z,26.50
2022-12-23T12:49:27.152Z,26.20
2022-12-23T12:54:38.706Z,28.35
2022-12-23T12:59:42.143Z,24.75
2022-12-23T13:05:06.345Z,22.43
2022-12-23T13:10:20.342Z,26.30
2022-12-23T13:15:41.659Z,24.03
2022-12-23T13:20:47.331Z,25.97
2022-12-23T13:26:00.550Z,27.98
2022-12-23T13:31:24.383Z,30.03
2022-12-23T13:36:44.808Z,24.95
2022-12-23T13:41:50.761Z,28.05
2022-12-23T13:47:12.526Z,37.50
2022-12-23T13:52:28.764Z,53.35
2022-12-23T13:57:45.396Z,29.95
2022-12-23T14:03:00.168Z,35.57
2022-12-23T14:08:07.850Z,37.33
2022-12-23T14:13:14.635Z,38.77
2022-12-23T14:18:36.502Z,42.90
2022-12-23T14:24:00.817Z,38.28
2022-12-23T14:29:23.595Z,41.73
2022-12-23T14:34:29.623Z,47.35
2022-12-23T14:39:33.657Z,37.80
2022-12-23T14:44:39.231Z,44.13
2022-12-23T14:49:43.511Z,53.08
2022-12-23T14:55:00.376Z,57.93
2022-12-23T15:00:11.306Z,52.53
2022-12-23T15:05:14.079Z,52.03
2022-12-23T15:10:17.561Z,43.23
2022-12-23T15:15:26.422Z,43.90
2022-12-23T15:20:30.958Z,57.30
2022-12-23T15:25:41.724Z,44.50
2022-12-23T15:30:55.675Z,52.33
2022-12-23T15:36:02.830Z,46.83
2022-12-23T15:41:27.063Z,55.00
2022-12-23T15:46:31.801Z,46.00
2022-12-23T15:57:02.589Z,47.47
2022-12-23T16:03:00.569Z,24.37
2022-12-23T16:08:16.343Z,43.53
2022-12-23T16:13:20.711Z,33.30
2022-12-23T16:18:32.823Z,30.15
2022-12-23T16:23:37.054Z,28.88
2022-12-23T16:28:45.126Z,22.47
2022-12-23T16:34:00.369Z,26.15
2022-12-23T16:39:22.934Z,7.13
2022-12-23T16:44:27.764Z,35.97
2022-12-23T16:49:33.959Z,22.65
2022-12-23T16:54:36.771Z,28.47
2022-12-23T16:59:41.273Z,28.77
2022-12-23T17:04:44.121Z,38.07
2022-12-23T17:09:47.847Z,53.33
2022-12-23T17:14:51.431Z,49.33
2022-12-23T17:19:56.290Z,24.07
2022-12-23T17:24:58.746Z,33.25
2022-12-23T17:30:01.218Z,29.23
2022-12-23T17:35:03.767Z,44.95
2022-12-23T17:40:07.367Z,48.28
2022-12-23T17:45:24.220Z,46.63
2022-12-23T17:50:26.685Z,52.28
2022-12-23T17:55:29.424Z,68.90
2022-12-23T18:00:34.576Z,53.63
2022-12-23T18:05:37.343Z,53.30
2022-12-23T18:10:40.771Z,43.83
2022-12-23T18:15:44.037Z,50.10
2022-12-23T18:20:48.035Z,58.43
2022-12-23T18:25:50.577Z,87.88
2022-12-23T18:30:55.494Z,104.25
2022-12-23T18:36:00.377Z,89.00
2022-12-23T18:41:02.896Z,146.52
2022-12-23T18:46:05.589Z,53.73
2022-12-23T18:51:10.424Z,37.15
2022-12-23T18:56:14.688Z,42.35
2022-12-23T19:01:18.717Z,34.13
2022-12-23T19:06:23.744Z,35.85
2022-12-23T19:11:26.192Z,36.73
2022-12-23T19:16:28.740Z,31.27
2022-12-23T19:21:31.402Z,43.97
2022-12-23T19:26:39.264Z,41.07
2022-12-23T19:31:45.543Z,35.08
2022-12-23T19:36:50.580Z,37.90
2022-12-23T19:41:53.321Z,31.80
2022-12-23T19:46:55.789Z,19.00
2022-12-23T19:51:58.400Z,27.83
2022-12-23T19:57:02.096Z,19.63
2022-12-23T20:02:04.628Z,24.17
2022-12-23T20:07:07.422Z,21.17
2022-12-23T20:12:09.958Z,27.42
2022-12-23T20:17:19.627Z,22.83
2022-12-23T20:22:22.527Z,12.73
2022-12-23T20:27:28.003Z,11.87
2022-12-23T20:32:30.892Z,15.38
2022-12-23T20:37:33.330Z,16.00
2022-12-23T20:42:35.765Z,16.93
2022-12-23T20:47:38.665Z,23.23
2022-12-23T20:52:41.199Z,14.30
2022-12-23T20:57:45.873Z,16.77
2022-12-23T21:02:48.418Z,16.17
2022-12-23T21:07:50.955Z,21.73
2022-12-23T21:12:53.363Z,34.83
2022-12-23T21:17:55.986Z,27.57
2022-12-23T21:22:58.431Z,18.33
2022-12-23T21:28:01.299Z,25.42
2022-12-23T21:33:03.839Z,18.80
2022-12-23T21:38:06.282Z,20.35
2022-12-23T21:43:09.121Z,6.50
2022-12-23T21:48:11.565Z,17.52
2022-12-23T21:53:14.040Z,9.98
2022-12-23T21:58:16.507Z,14.30
2022-12-23T22:03:18.953Z,20.27
2022-12-23T22:08:22.128Z,22.80
2022-12-23T22:13:26.589Z,28.60
2022-12-23T22:18:29.214Z,29.15
2022-12-23T22:23:31.727Z,21.20
2022-12-23T22:28:36.025Z,26.38
2022-12-23T22:33:38.397Z,9.40
2022-12-23T22:38:41.794Z,34.92
2022-12-23T22:43:44.286Z,23.73
2022-12-23T22:48:46.873Z,35.73
2022-12-23T22:53:49.800Z,38.58
2022-12-23T22:58:53.565Z,20.97
2022-12-23T23:03:57.695Z,39.08
2022-12-23T23:09:01.152Z,42.67
2022-12-23T23:14:04.202Z,37.93
2022-12-23T23:19:09.130Z,29.52
2022-12-23T23:24:12.128Z,38.33
2022-12-23T23:29:14.635Z,50.38
2022-12-23T23:34:17.083Z,23.88
2022-12-23T23:39:19.526Z,27.80
2022-12-23T23:44:22.062Z,26.25
2022-12-23T23:49:24.574Z,21.60
2022-12-23T23:54:27.060Z,16.10
2022-12-23T23:59:29.828Z,26.10
